Siegerland, Germania

08:12 PM CET die 31o October, anno 2014 (GMT +0100)
IRHEINLA29 | Change Station
CLOSE
Current Station
Personal Weather Stations
Location: Hoehn-Oellingen (Westerwald), DE
Elevation: 1559 ft
Nearby Weather Stations

Elev 1559 ft 50.61 °N, 7.99 °E | Updated 12 minutes ago

Clear
Serena
49.6 °F
Feels Like 49 °F
N
3.6
Ventus Variabilis Ventus from Eurus
Gusts 5.7 mph

Hodie
High -- | Low -- °F
--% Chance of Precip.
Yesterday
High -- | Low -- °F
Precip. -- in
7:17 AM 5:04 PM
First Quarter, 58% visible
Pressio 30.27 in
Visibilitas 6.2 milia passuum
Clouds Serena
Frigus Venti 49 °F
Frigus in quo Ros apparet 48 °F
Umor 96%
Rainfall 0.00 in
Snow Depth Not available.
UV 0.0 out of 12
Pollen Not available.
Air Quality Not available.
Flu Activity Not available.
METAR ETOU 311858Z AUTO 00000KT 9999 CLR 11/11 A3026 RMK AO2 SLP251 T01110111

More Conditions Fewer Conditions

Pressio 30.27 in
Visibilitas 6.2 milia passuum
Clouds Serena
Frigus Venti 49 °F
Frigus in quo Ros apparet 48 °F
Umor 96%
Rainfall 0.00 in
Snow Depth Not available.
UV 0.0 out of 12
Pollen Not available.
Air Quality Not available.
Flu Activity Not available.
METAR ETOU 311858Z AUTO 00000KT 9999 CLR 11/11 A3026 RMK AO2 SLP251 T01110111

More Conditions Fewer Conditions

10-Day Weather Forecast

Almanac

Astronomy

Oct. 31, 2014 Rise Set
Actual Time
Civil Twilight
Nautical Twilight
Astronomical Twilight
Moon
Length Of Visible Light
Length of Day
Tomorrow will be .
, % of the Moon is Illuminated

Today's Extremes

Country Highs Country Lows

Community

WunderPhotos

Upload Photos

1,766,696 photos uploaded!

WunderBlogs® & News

Nearby

Air Quality

  Air Quality AQ Index Pollutant
Not available.

Snow Depth

Station Depth Elevation

Earthquake Activity

City Distance Mag. Time & Date
Minimum magnitude displayed is 2.5.

Coastal Water Temperatures

Locus Calor

Nearby Weather Stations